Terminal Aerodrome Forecast
Issued by NWS Raleigh/Durham, NC

Home | Current Version | Previous Version | Text Only | Print | Product List | Glossary On
Versions: 1 2 3 4 5 6 7 8 9 10 11 12 13
000
FTUS42 KRAH 130531
TAFGSO
TAF
KGSO 130531Z 1306/1406 32010G20KT P6SM FEW050 FEW250
     FM131400 27008KT P6SM SKC
     FM132000 23009KT P6SM FEW250
     FM140300 22011KT P6SM SCT090 WS020/23040KT=

USA.gov is the U.S. government's official web portal to all federal, state and local government web resources and services.